Time,TemperatureF,DewpointF,PressureIn,WindDirection,WindDirectionDegrees,WindSpeedMPH,WindSpeedGustMPH,Humidity,HourlyPrecipIn,Conditions,Clouds,dailyrainin,SoftwareType,DateUTC
2013-06-08 08:32:00,75.0,67.0,30.02,East,80,7.0,17.0,77,0.00,,,0.00,,2013-06-08 18:32:00,
2013-06-08 08:42:00,76.0,68.0,30.02,ENE,76,10.0,20.0,77,0.00,,,0.00,,2013-06-08 18:42:00,
2013-06-08 08:52:00,76.0,68.0,30.02,ENE,76,10.0,20.0,77,0.00,,,0.00,,2013-06-08 18:52:00,
2013-06-08 09:02:00,77.0,69.0,30.02,ENE,61,8.0,17.0,76,0.00,,,0.00,,2013-06-08 19:02:00,
2013-06-08 09:12:00,77.0,69.0,30.02,ENE,61,8.0,17.0,76,0.00,,,0.00,,2013-06-08 19:12:00,
2013-06-08 09:22:00,77.0,67.0,30.02,ENE,58,5.0,21.0,72,0.00,,,0.00,,2013-06-08 19:22:00,
2013-06-08 09:32:00,78.0,68.0,30.02,East,82,10.0,23.0,71,0.00,,,0.00,,2013-06-08 19:32:00,
2013-06-08 09:42:00,78.0,68.0,30.02,East,82,10.0,23.0,71,0.00,,,0.00,,2013-06-08 19:42:00,
2013-06-08 09:53:00,78.0,68.0,30.02,ENE,69,7.0,22.0,71,0.00,,,0.00,,2013-06-08 19:53:00,
2013-06-08 10:01:00,79.0,69.0,30.02,ENE,72,11.0,23.0,71,0.00,,,0.00,,2013-06-08 20:01:00,
2013-06-08 10:22:00,80.0,69.0,30.02,NE,55,17.0,20.0,70,0.00,,,0.00,,2013-06-08 20:22:00,
2013-06-08 10:31:00,80.0,69.0,30.03,East,91,10.0,14.0,70,0.00,,,0.00,,2013-06-08 20:31:00,
2013-06-08 10:42:00,80.0,69.0,30.03,East,91,10.0,14.0,70,0.00,,,0.00,,2013-06-08 20:42:00,
2013-06-08 10:52:00,80.0,69.0,30.03,ENE,66,9.0,17.0,70,0.00,,,0.00,,2013-06-08 20:52:00,
2013-06-08 11:01:00,81.0,70.0,30.03,NE,43,7.0,18.0,69,0.00,,,0.00,,2013-06-08 21:01:00,
2013-06-08 11:12:00,81.0,70.0,30.03,NE,43,7.0,18.0,69,0.00,,,0.00,,2013-06-08 21:12:00,
2013-06-08 11:22:00,81.0,70.0,30.03,ENE,69,3.0,16.0,69,0.00,,,0.00,,2013-06-08 21:22:00,
2013-06-08 11:32:00,83.0,70.0,30.03,East,93,11.0,17.0,66,0.00,,,0.00,,2013-06-08 21:32:00,
2013-06-08 11:43:00,83.0,70.0,30.03,East,93,11.0,17.0,66,0.00,,,0.00,,2013-06-08 21:43:00,
2013-06-08 11:53:00,82.0,70.0,30.03,East,101,9.0,24.0,67,0.00,,,0.00,,2013-06-08 21:53:00,
2013-06-08 12:02:00,83.0,70.0,30.03,East,88,10.0,19.0,66,0.00,,,0.00,,2013-06-08 22:02:00,
2013-06-08 12:12:00,82.0,70.0,30.02,East,86,9.0,18.0,68,0.00,,,0.00,,2013-06-08 22:12:00,
2013-06-08 12:22:00,82.0,70.0,30.02,East,86,9.0,18.0,68,0.00,,,0.00,,2013-06-08 22:22:00,
2013-06-08 12:33:00,83.0,70.0,30.01,ENE,78,5.0,18.0,65,0.00,,,0.00,,2013-06-08 22:33:00,
2013-06-08 12:42:00,83.0,70.0,30.01,East,82,15.0,17.0,66,0.00,,,0.00,,2013-06-08 22:42:00,
2013-06-08 12:52:00,83.0,70.0,30.01,East,82,15.0,17.0,66,0.00,,,0.00,,2013-06-08 22:52:00,
2013-06-08 13:01:00,82.0,70.0,30.01,NE,47,2.0,10.0,68,0.00,,,0.00,,2013-06-08 23:01:00,
2013-06-08 13:11:00,83.0,70.0,30.01,ENE,70,0.0,16.0,65,0.00,,,0.00,,2013-06-08 23:11:00,
2013-06-08 13:22:00,83.0,70.0,30.01,ENE,70,0.0,16.0,65,0.00,,,0.00,,2013-06-08 23:22:00,
2013-06-08 13:32:00,83.0,70.0,30.01,NE,49,11.0,18.0,64,0.00,,,0.00,,2013-06-08 23:32:00,
2013-06-08 13:42:00,83.0,70.0,30.01,NE,49,11.0,18.0,64,0.00,,,0.00,,2013-06-08 23:42:00,
2013-06-08 13:52:00,82.0,69.0,30.01,East,81,3.0,18.0,66,0.00,,,0.00,,2013-06-08 23:52:00,
2013-06-08 14:01:00,82.0,69.0,30.01,ENE,59,13.0,17.0,66,0.00,,,0.00,,2013-06-09 00:01:00,
2013-06-08 14:11:00,82.0,69.0,30.01,ENE,59,13.0,17.0,66,0.00,,,0.00,,2013-06-09 00:11:00,
2013-06-08 14:22:00,83.0,70.0,30.01,East,84,9.0,12.0,64,0.00,,,0.00,,2013-06-09 00:22:00,
2013-06-08 14:32:00,82.0,69.0,30.00,ENE,78,7.0,17.0,64,0.00,,,0.00,,2013-06-09 00:32:00,
2013-06-08 14:42:00,82.0,69.0,30.00,ENE,78,7.0,17.0,64,0.00,,,0.00,,2013-06-09 00:42:00,
2013-06-08 14:52:00,82.0,69.0,30.00,NE,40,6.0,14.0,66,0.00,,,0.00,,2013-06-09 00:52:00,
2013-06-08 15:01:00,82.0,70.0,29.99,NNE,30,12.0,19.0,67,0.00,,,0.00,,2013-06-09 01:01:00,
2013-06-08 15:11:00,84.0,70.0,29.99,ENE,67,12.0,16.0,63,0.00,,,0.00,,2013-06-09 01:11:00,
2013-06-08 15:22:00,84.0,70.0,29.99,ENE,67,12.0,16.0,63,0.00,,,0.00,,2013-06-09 01:22:00,
2013-06-08 15:31:00,81.0,69.0,29.98,East,85,6.0,16.0,67,0.00,,,0.00,,2013-06-09 01:31:00,
2013-06-08 15:42:00,81.0,69.0,29.98,East,85,6.0,16.0,67,0.00,,,0.00,,2013-06-09 01:42:00,
2013-06-08 15:52:00,81.0,69.0,29.99,NE,35,14.0,17.0,68,0.00,,,0.00,,2013-06-09 01:52:00,
2013-06-08 16:02:00,82.0,70.0,29.99,NNE,32,13.0,17.0,68,0.00,,,0.00,,2013-06-09 02:02:00,
2013-06-08 16:11:00,82.0,70.0,29.99,NNE,32,13.0,17.0,68,0.00,,,0.00,,2013-06-09 02:11:00,
2013-06-08 16:22:00,80.0,69.0,29.98,East,88,9.0,12.0,69,0.00,,,0.00,,2013-06-09 02:22:00,
2013-06-08 16:32:00,80.0,69.0,29.98,NE,55,5.0,14.0,70,0.00,,,0.00,,2013-06-09 02:32:00,
2013-06-08 16:41:00,80.0,69.0,29.98,NE,55,5.0,14.0,70,0.00,,,0.00,,2013-06-09 02:41:00,
2013-06-08 16:52:00,79.0,68.0,29.98,ENE,74,2.0,22.0,69,0.00,,,0.00,,2013-06-09 02:52:00,
2013-06-08 17:01:00,80.0,69.0,29.99,ENE,58,1.0,13.0,69,0.00,,,0.00,,2013-06-09 03:01:00,
2013-06-08 17:11:00,80.0,69.0,29.99,ENE,58,1.0,13.0,69,0.00,,,0.00,,2013-06-09 03:11:00,
2013-06-08 17:22:00,80.0,68.0,29.99,NE,40,7.0,17.0,67,0.00,,,0.00,,2013-06-09 03:22:00,
2013-06-08 17:32:00,80.0,69.0,29.99,ENE,61,8.0,13.0,69,0.00,,,0.00,,2013-06-09 03:32:00,
2013-06-08 17:43:00,80.0,69.0,29.99,ENE,61,8.0,13.0,69,0.00,,,0.00,,2013-06-09 03:43:00,
2013-06-08 17:53:00,78.0,68.0,30.00,ENE,65,9.0,14.0,72,0.00,,,0.00,,2013-06-09 03:53:00,
2013-06-08 18:02:00,77.0,68.0,30.01,ENE,63,8.0,15.0,74,0.00,,,0.00,,2013-06-09 04:02:00,
2013-06-08 18:12:00,77.0,68.0,30.01,ENE,63,8.0,15.0,74,0.00,,,0.00,,2013-06-09 04:12:00,
2013-06-08 18:22:00,77.0,68.0,30.01,ENE,63,8.0,15.0,74,0.00,,,0.00,,2013-06-09 04:22:00,
2013-06-08 18:32:00,77.0,68.0,30.01,ENE,63,8.0,15.0,74,0.00,,,0.00,,2013-06-09 04:32:00,
2013-06-08 18:42:00,77.0,68.0,30.01,ENE,63,8.0,15.0,74,0.00,,,0.00,,2013-06-09 04:42:00,